Time;durP1;ratioP1;P1;durP2;ratioP2;P2;SDS_P1;SDS_P2;PMS_P1;PMS_P2;Temp;Humidity;BMP_temperature;BMP_pressure;BME280_temperature;BME280_humidity;BME280_pressure;Samples;Min_cycle;Max_cycle;Signal;HPM_P1;HPM_P2
2022/08/18 00:02:50;;;;;;;9.07;7.87;;;;;;;;;;10394135;28;20217;-75
2022/08/18 00:07:51;;;;;;;10.47;7.60;;;;;;;;;;10405979;28;20224;-74
2022/08/18 00:12:52;;;;;;;8.20;7.40;;;;;;;;;;10412678;28;20238;-74
2022/08/18 00:17:53;;;;;;;9.17;6.87;;;;;;;;;;10421580;28;20220;-74
2022/08/18 00:22:55;;;;;;;7.20;6.17;;;;;;;;;;10408620;28;20224;-74
2022/08/18 00:27:56;;;;;;;8.63;6.30;;;;;;;;;;10417205;28;20256;-75
2022/08/18 00:32:58;;;;;;;6.93;5.97;;;;;;;;;;10396512;28;20212;-74
2022/08/18 00:38:00;;;;;;;7.80;5.90;;;;;;;;;;10417350;28;20224;-72
2022/08/18 00:43:03;;;;;;;9.03;6.07;;;;;;;;;;10412680;28;20224;-73
2022/08/18 00:48:05;;;;;;;6.50;5.63;;;;;;;;;;10399099;28;20725;-73
2022/08/18 00:53:14;;;;;;;9.40;6.23;;;;;;;;;;10409620;28;20817;-74
2022/08/18 00:58:22;;;;;;;6.67;6.00;;;;;;;;;;10395865;28;20282;-75
2022/08/18 01:03:23;;;;;;;6.03;5.53;;;;;;;;;;10406820;28;20217;-74
2022/08/18 01:08:25;;;;;;;6.03;5.23;;;;;;;;;;10394972;28;20227;-73
2022/08/18 01:13:27;;;;;;;7.07;5.80;;;;;;;;;;10410510;28;20678;-73
2022/08/18 01:23:50;;;;;;;6.90;6.17;;;;;;;;;;10401842;28;20652;-72
2022/08/18 01:28:52;;;;;;;5.83;5.33;;;;;;;;;;10406646;28;20298;-73
2022/08/18 01:33:55;;;;;;;7.20;5.50;;;;;;;;;;10399565;28;20246;-73
2022/08/18 01:38:56;;;;;;;5.87;5.33;;;;;;;;;;10396408;28;20221;-74
2022/08/18 01:43:59;;;;;;;7.17;5.70;;;;;;;;;;10402352;28;20223;-73
2022/08/18 01:49:04;;;;;;;7.43;5.47;;;;;;;;;;10400184;28;20217;-73
2022/08/18 01:54:05;;;;;;;6.50;5.40;;;;;;;;;;10408170;28;20288;-72
2022/08/18 01:59:09;;;;;;;5.53;4.93;;;;;;;;;;10407209;28;20227;-72
2022/08/18 02:04:11;;;;;;;6.27;5.43;;;;;;;;;;10400156;28;20703;-72
2022/08/18 02:09:12;;;;;;;8.67;4.83;;;;;;;;;;10394233;28;20221;-71
2022/08/18 02:14:13;;;;;;;5.93;5.33;;;;;;;;;;10408066;28;20822;-72
2022/08/18 02:19:14;;;;;;;5.53;5.03;;;;;;;;;;10390301;28;20217;-72
2022/08/18 02:24:15;;;;;;;6.93;5.00;;;;;;;;;;10405929;28;20227;-74
2022/08/18 02:29:16;;;;;;;7.43;4.90;;;;;;;;;;10404016;28;20223;-73
2022/08/18 02:34:17;;;;;;;7.03;5.03;;;;;;;;;;10396904;28;20314;-73
2022/08/18 02:39:18;;;;;;;5.83;4.70;;;;;;;;;;10400448;28;20221;-73
2022/08/18 02:44:19;;;;;;;5.73;4.83;;;;;;;;;;10409233;28;20331;-72
2022/08/18 02:49:21;;;;;;;4.90;4.50;;;;;;;;;;10409320;28;20229;-74
2022/08/18 02:54:23;;;;;;;6.10;4.50;;;;;;;;;;10403393;28;20261;-72
2022/08/18 02:59:26;;;;;;;5.17;4.37;;;;;;;;;;10398991;28;20232;-72
2022/08/18 03:04:28;;;;;;;5.53;4.60;;;;;;;;;;10394411;28;20251;-72
2022/08/18 03:09:30;;;;;;;5.47;4.70;;;;;;;;;;10401944;28;20228;-72
2022/08/18 03:14:31;;;;;;;4.83;4.33;;;;;;;;;;10391717;28;20225;-72
2022/08/18 03:19:32;;;;;;;5.67;4.70;;;;;;;;;;10405516;28;20213;-72
2022/08/18 03:24:33;;;;;;;7.70;4.93;;;;;;;;;;10406297;28;20225;-72
2022/08/18 03:29:37;;;;;;;4.80;4.40;;;;;;;;;;10406921;28;20680;-73
2022/08/18 03:34:38;;;;;;;7.97;5.03;;;;;;;;;;10399065;28;20283;-72
2022/08/18 03:39:40;;;;;;;4.60;4.20;;;;;;;;;;10401782;28;20220;-72
2022/08/18 03:44:41;;;;;;;6.43;4.60;;;;;;;;;;10396796;28;20225;-72
2022/08/18 03:49:42;;;;;;;5.30;4.77;;;;;;;;;;10405079;28;20767;-72
2022/08/18 03:54:43;;;;;;;5.30;4.50;;;;;;;;;;10394203;28;20228;-73
2022/08/18 03:59:44;;;;;;;4.80;4.40;;;;;;;;;;10409895;28;20227;-74
2022/08/18 04:04:45;;;;;;;4.93;4.47;;;;;;;;;;10404581;28;20781;-74
2022/08/18 04:09:46;;;;;;;5.30;4.80;;;;;;;;;;10400794;28;20231;-74
2022/08/18 04:14:48;;;;;;;4.77;4.37;;;;;;;;;;10391313;28;20224;-75
2022/08/18 04:19:52;;;;;;;6.10;4.47;;;;;;;;;;10395727;28;20224;-73
2022/08/18 04:24:54;;;;;;;4.93;4.53;;;;;;;;;;10411337;28;20216;-68
2022/08/18 04:29:55;;;;;;;5.10;4.60;;;;;;;;;;10414618;28;20301;-67
2022/08/18 04:34:57;;;;;;;5.70;4.83;;;;;;;;;;10410752;28;20216;-69
2022/08/18 04:40:04;;;;;;;6.50;4.57;;;;;;;;;;10390240;28;20835;-69
2022/08/18 04:45:06;;;;;;;4.90;4.50;;;;;;;;;;10404852;28;20359;-70
2022/08/18 04:50:07;;;;;;;5.20;4.80;;;;;;;;;;10406634;28;20196;-69
2022/08/18 04:55:11;;;;;;;5.57;4.90;;;;;;;;;;10414189;28;20257;-69
2022/08/18 05:00:12;;;;;;;5.50;5.00;;;;;;;;;;10404487;28;20527;-69
2022/08/18 05:05:13;;;;;;;5.20;4.70;;;;;;;;;;10397965;28;20197;-70
2022/08/18 05:10:17;;;;;;;6.17;5.10;;;;;;;;;;10405994;28;20193;-72
2022/08/18 05:15:18;;;;;;;6.87;5.23;;;;;;;;;;10402793;28;20217;-70
2022/08/18 05:20:19;;;;;;;5.90;5.00;;;;;;;;;;10407174;28;20192;-70
2022/08/18 05:25:20;;;;;;;5.90;5.13;;;;;;;;;;10393117;28;20203;-69
2022/08/18 05:30:21;;;;;;;5.80;5.03;;;;;;;;;;10412206;28;20279;-70
2022/08/18 05:35:27;;;;;;;6.17;5.30;;;;;;;;;;10387080;28;20645;-69
2022/08/18 05:40:30;;;;;;;6.20;4.90;;;;;;;;;;10405634;28;20641;-74
2022/08/18 05:45:33;;;;;;;5.70;5.13;;;;;;;;;;10400705;28;20695;-74
2022/08/18 05:50:38;;;;;;;5.90;5.40;;;;;;;;;;10397912;28;20735;-75
2022/08/18 06:01:22;;;;;;;5.33;4.80;;;;;;;;;;10397574;28;20228;-74
2022/08/18 06:06:24;;;;;;;6.13;5.00;;;;;;;;;;10399074;28;20720;-75
2022/08/18 06:11:32;;;;;;;7.33;5.23;;;;;;;;;;10391545;28;20653;-74
2022/08/18 06:16:45;;;;;;;6.47;5.30;;;;;;;;;;10397112;28;20715;-74
2022/08/18 06:21:49;;;;;;;5.57;5.00;;;;;;;;;;10387187;28;20227;-75
2022/08/18 06:27:09;;;;;;;7.40;5.27;;;;;;;;;;10390688;28;20224;-74
2022/08/18 06:32:13;;;;;;;6.17;5.07;;;;;;;;;;10396084;28;20228;-74
2022/08/18 06:37:17;;;;;;;9.10;5.77;;;;;;;;;;10386479;28;20229;-74
2022/08/18 06:42:20;;;;;;;6.10;5.43;;;;;;;;;;10393896;28;20223;-75
2022/08/18 06:47:38;;;;;;;5.90;4.70;;;;;;;;;;10388215;28;20328;-75
2022/08/18 06:52:51;;;;;;;8.57;5.30;;;;;;;;;;10392005;28;20225;-74
2022/08/18 06:57:56;;;;;;;7.33;5.30;;;;;;;;;;10388979;28;20652;-74
2022/08/18 07:03:14;;;;;;;5.70;5.07;;;;;;;;;;10396447;28;20311;-74
2022/08/18 07:08:20;;;;;;;6.00;5.37;;;;;;;;;;10381575;28;20228;-75
2022/08/18 07:13:25;;;;;;;10.90;5.67;;;;;;;;;;10392787;28;20229;-74
2022/08/18 07:18:27;;;;;;;5.90;5.23;;;;;;;;;;10394591;28;20234;-74
2022/08/18 07:23:28;;;;;;;5.87;5.23;;;;;;;;;;10393364;28;20232;-74
2022/08/18 07:28:48;;;;;;;10.00;5.90;;;;;;;;;;10403467;28;20309;-74
2022/08/18 07:33:52;;;;;;;6.63;5.50;;;;;;;;;;10401945;28;20262;-74
2022/08/18 07:39:00;;;;;;;6.37;5.77;;;;;;;;;;10403255;28;20637;-76
2022/08/18 07:44:17;;;;;;;6.77;5.97;;;;;;;;;;10394651;28;20351;-74
2022/08/18 07:49:20;;;;;;;9.13;6.37;;;;;;;;;;10397045;28;21058;-74
2022/08/18 07:54:27;;;;;;;6.87;6.17;;;;;;;;;;10401057;28;20727;-74
2022/08/18 07:59:32;;;;;;;7.93;7.13;;;;;;;;;;10398623;28;20225;-76
2022/08/18 08:04:40;;;;;;;8.73;7.63;;;;;;;;;;10397649;28;20216;-75
2022/08/18 08:09:54;;;;;;;8.40;7.27;;;;;;;;;;10408816;28;20824;-75
2022/08/18 08:15:03;;;;;;;12.27;8.10;;;;;;;;;;10401190;28;20235;-75
2022/08/18 08:20:16;;;;;;;8.03;7.23;;;;;;;;;;10391884;28;21047;-74
2022/08/18 08:25:18;;;;;;;8.23;7.33;;;;;;;;;;10399155;28;20204;-75
2022/08/18 08:30:20;;;;;;;9.73;8.73;;;;;;;;;;10402512;28;20231;-75
2022/08/18 08:35:26;;;;;;;8.50;7.63;;;;;;;;;;10393495;28;20219;-74
2022/08/18 08:40:45;;;;;;;9.20;8.17;;;;;;;;;;10396174;28;20283;-75
2022/08/18 08:46:07;;;;;;;7.60;6.80;;;;;;;;;;10392860;28;20262;-75
2022/08/18 08:51:22;;;;;;;8.70;7.53;;;;;;;;;;10393241;28;20209;-75
2022/08/18 08:56:30;;;;;;;11.67;8.03;;;;;;;;;;10397009;28;20225;-78
2022/08/18 09:01:31;;;;;;;9.47;8.47;;;;;;;;;;10391189;28;20309;-74
2022/08/18 09:06:50;;;;;;;9.87;8.50;;;;;;;;;;10387811;28;20783;-75
2022/08/18 09:12:07;;;;;;;9.87;8.87;;;;;;;;;;10391968;28;20221;-73
2022/08/18 09:17:27;;;;;;;10.33;7.80;;;;;;;;;;10391550;28;20573;-75
2022/08/18 09:22:50;;;;;;;9.03;8.10;;;;;;;;;;10394032;28;20279;-76
2022/08/18 09:28:05;;;;;;;12.40;11.30;;;;;;;;;;10397439;28;20220;-75
2022/08/18 09:33:25;;;;;;;15.27;13.67;;;;;;;;;;10389448;28;20224;-74
2022/08/18 09:44:09;;;;;;;15.30;13.90;;;;;;;;;;10398280;28;20229;-74
2022/08/18 09:49:22;;;;;;;15.20;13.70;;;;;;;;;;10389959;28;20719;-73
2022/08/18 09:54:27;;;;;;;19.33;17.37;;;;;;;;;;10384419;28;20731;-74
2022/08/18 09:59:31;;;;;;;13.63;12.23;;;;;;;;;;10393801;28;20246;-75
2022/08/18 10:04:34;;;;;;;16.90;15.30;;;;;;;;;;10389757;28;20225;-74
2022/08/18 10:09:43;;;;;;;15.33;13.70;;;;;;;;;;10393359;28;20574;-75
2022/08/18 10:14:59;;;;;;;17.80;16.10;;;;;;;;;;10396342;28;20224;-75
2022/08/18 10:20:08;;;;;;;17.20;15.20;;;;;;;;;;10394999;28;20330;-75
2022/08/18 10:25:17;;;;;;;18.70;16.93;;;;;;;;;;10394249;28;20267;-75
2022/08/18 10:30:27;;;;;;;15.33;13.87;;;;;;;;;;10388750;28;20217;-75
2022/08/18 10:35:37;;;;;;;14.67;12.40;;;;;;;;;;10392152;28;20723;-75
2022/08/18 10:40:38;;;;;;;14.70;13.20;;;;;;;;;;10390635;28;20220;-74
2022/08/18 10:45:47;;;;;;;13.80;12.40;;;;;;;;;;10381301;28;20677;-74
2022/08/18 10:51:06;;;;;;;16.40;14.50;;;;;;;;;;10395865;28;20239;-75
2022/08/18 10:56:31;;;;;;;17.10;15.40;;;;;;;;;;10388109;28;20260;-75
2022/08/18 11:01:47;;;;;;;17.43;14.83;;;;;;;;;;10391479;28;20244;-73
2022/08/18 11:06:49;;;;;;;14.93;13.43;;;;;;;;;;10398225;28;20258;-74
2022/08/18 11:11:51;;;;;;;23.53;21.30;;;;;;;;;;10395505;28;20664;-75
2022/08/18 11:17:11;;;;;;;19.70;17.80;;;;;;;;;;10402441;28;20259;-74
2022/08/18 11:22:23;;;;;;;17.93;16.43;;;;;;;;;;10394650;28;20231;-74
2022/08/18 11:27:26;;;;;;;15.27;13.87;;;;;;;;;;10385458;28;20220;-74
2022/08/18 11:32:29;;;;;;;18.77;16.97;;;;;;;;;;10395504;28;20269;-76
2022/08/18 11:37:33;;;;;;;25.50;23.00;;;;;;;;;;10398616;28;20289;-74
2022/08/18 11:42:38;;;;;;;23.23;21.03;;;;;;;;;;10402747;28;20227;-74
2022/08/18 11:47:58;;;;;;;22.87;20.83;;;;;;;;;;10397591;28;20377;-74
2022/08/18 11:53:13;;;;;;;22.13;20.13;;;;;;;;;;10402678;28;20624;-75
2022/08/18 11:58:34;;;;;;;23.37;20.93;;;;;;;;;;10376867;28;20294;-75
2022/08/18 12:03:42;;;;;;;23.07;20.97;;;;;;;;;;10405787;28;20240;-75
2022/08/18 12:08:52;;;;;;;23.90;21.50;;;;;;;;;;10397077;28;20232;-75
2022/08/18 12:14:22;;;;;;;22.67;20.37;;;;;;;;;;10408716;28;20229;-75
2022/08/18 12:19:26;;;;;;;21.43;19.53;;;;;;;;;;10380101;28;20255;-74
2022/08/18 12:24:29;;;;;;;21.67;19.50;;;;;;;;;;10390606;28;20222;-74
2022/08/18 12:29:30;;;;;;;17.93;16.23;;;;;;;;;;10391793;28;20228;-75
2022/08/18 12:34:32;;;;;;;18.23;16.63;;;;;;;;;;10396770;28;20218;-75
2022/08/18 12:39:33;;;;;;;17.77;15.70;;;;;;;;;;10397152;28;20229;-75
2022/08/18 12:44:34;;;;;;;16.47;14.97;;;;;;;;;;10394652;28;20688;-75
2022/08/18 12:49:35;;;;;;;15.43;13.90;;;;;;;;;;10396487;28;20302;-75
2022/08/18 12:54:36;;;;;;;17.50;15.73;;;;;;;;;;10399934;28;20291;-75
2022/08/18 12:59:37;;;;;;;16.53;14.93;;;;;;;;;;10400468;28;20759;-74
2022/08/18 13:04:38;;;;;;;18.77;17.23;;;;;;;;;;10394616;28;20221;-74
2022/08/18 13:09:40;;;;;;;18.27;16.57;;;;;;;;;;10391646;28;20620;-74
2022/08/18 13:14:41;;;;;;;18.50;16.63;;;;;;;;;;10391427;28;20230;-74
2022/08/18 13:19:43;;;;;;;15.83;14.43;;;;;;;;;;10398994;28;20233;-75
2022/08/18 13:24:44;;;;;;;14.47;13.17;;;;;;;;;;10398314;28;20224;-75
2022/08/18 13:29:47;;;;;;;16.30;14.73;;;;;;;;;;10387387;28;20221;-74
2022/08/18 13:34:48;;;;;;;13.17;11.87;;;;;;;;;;10398400;28;20230;-76
2022/08/18 13:39:49;;;;;;;10.37;9.03;;;;;;;;;;10390058;28;20243;-74
2022/08/18 13:44:50;;;;;;;12.77;11.57;;;;;;;;;;10390825;28;20232;-74
2022/08/18 13:49:51;;;;;;;12.07;10.30;;;;;;;;;;10390993;28;20214;-75
2022/08/18 13:54:52;;;;;;;10.80;7.87;;;;;;;;;;10381486;28;20234;-75
2022/08/18 13:59:53;;;;;;;12.77;11.57;;;;;;;;;;10395259;28;20229;-75
2022/08/18 14:04:54;;;;;;;10.23;9.23;;;;;;;;;;10401787;28;20785;-74
2022/08/18 14:09:55;;;;;;;14.80;12.83;;;;;;;;;;10397873;28;20221;-75
2022/08/18 14:14:56;;;;;;;9.97;9.07;;;;;;;;;;10397597;28;20699;-74
2022/08/18 14:30:40;;;;;;;11.33;10.33;;;;;;;;;;10399174;28;20600;-76
2022/08/18 14:35:41;;;;;;;12.10;11.00;;;;;;;;;;10391743;28;20223;-75
2022/08/18 14:40:43;;;;;;;9.97;9.07;;;;;;;;;;10384869;28;20252;-74
2022/08/18 14:45:46;;;;;;;10.20;8.97;;;;;;;;;;10395062;28;20232;-75
2022/08/18 14:50:51;;;;;;;8.67;7.97;;;;;;;;;;10400023;28;20297;-75
2022/08/18 14:55:53;;;;;;;9.57;8.57;;;;;;;;;;10387636;28;20236;-74
2022/08/18 15:00:55;;;;;;;10.80;9.80;;;;;;;;;;10388072;28;20227;-75
2022/08/18 15:06:00;;;;;;;8.83;8.03;;;;;;;;;;10388049;28;20233;-74
2022/08/18 15:11:02;;;;;;;9.10;8.20;;;;;;;;;;10387675;28;20265;-75
2022/08/18 15:16:03;;;;;;;8.73;7.93;;;;;;;;;;10387028;28;20231;-74
2022/08/18 15:26:25;;;;;;;8.50;7.70;;;;;;;;;;10388525;28;20690;-75
2022/08/18 15:31:29;;;;;;;7.53;6.67;;;;;;;;;;10386524;28;20225;-75
2022/08/18 15:36:34;;;;;;;7.07;6.37;;;;;;;;;;10383783;28;20258;-74
2022/08/18 15:41:39;;;;;;;7.07;6.47;;;;;;;;;;10387981;28;20215;-74
2022/08/18 15:46:42;;;;;;;7.90;7.00;;;;;;;;;;10393501;28;20230;-74
2022/08/18 15:51:43;;;;;;;6.97;6.37;;;;;;;;;;10399625;28;20234;-74
2022/08/18 15:56:44;;;;;;;6.60;6.00;;;;;;;;;;10399322;28;20262;-74
2022/08/18 16:01:46;;;;;;;7.23;6.53;;;;;;;;;;10384803;28;20218;-74
2022/08/18 16:06:49;;;;;;;7.27;6.10;;;;;;;;;;10390818;28;20647;-74
2022/08/18 16:11:55;;;;;;;7.67;6.97;;;;;;;;;;10405858;28;20249;-74
2022/08/18 16:16:56;;;;;;;7.30;5.73;;;;;;;;;;10392456;28;20239;-74
2022/08/18 16:21:57;;;;;;;6.60;6.00;;;;;;;;;;10390912;28;20692;-75
2022/08/18 16:26:58;;;;;;;8.07;6.90;;;;;;;;;;10412564;28;20229;-74
2022/08/18 16:31:59;;;;;;;7.43;6.73;;;;;;;;;;10389330;28;20262;-76
2022/08/18 16:37:01;;;;;;;8.97;6.10;;;;;;;;;;10407477;28;20224;-74
2022/08/18 16:42:03;;;;;;;8.73;6.90;;;;;;;;;;10389608;28;20234;-75
2022/08/18 16:47:07;;;;;;;11.73;10.53;;;;;;;;;;10390500;28;20275;-75
2022/08/18 16:52:08;;;;;;;12.80;11.67;;;;;;;;;;10388613;28;20221;-75
2022/08/18 16:57:09;;;;;;;12.93;11.63;;;;;;;;;;10310459;28;2303978;-76
2022/08/18 17:07:31;;;;;;;12.60;11.40;;;;;;;;;;10395063;28;20304;-73
2022/08/18 17:12:32;;;;;;;13.60;11.43;;;;;;;;;;10378989;28;20656;-74
2022/08/18 17:17:34;;;;;;;13.83;11.20;;;;;;;;;;10399108;28;20316;-74
2022/08/18 17:22:35;;;;;;;13.20;11.83;;;;;;;;;;10388145;28;20762;-73
2022/08/18 17:27:42;;;;;;;13.10;11.90;;;;;;;;;;10395737;28;20266;-73
2022/08/18 17:32:45;;;;;;;13.17;11.87;;;;;;;;;;10397515;28;20224;-73
2022/08/18 17:38:06;;;;;;;14.57;12.60;;;;;;;;;;10397289;28;20321;-73
2022/08/18 17:43:11;;;;;;;13.60;12.20;;;;;;;;;;10380519;28;20228;-73
2022/08/18 17:48:18;;;;;;;13.80;12.60;;;;;;;;;;10405565;28;20217;-73
2022/08/18 17:53:21;;;;;;;14.90;13.40;;;;;;;;;;10395236;28;20236;-73
2022/08/18 17:58:29;;;;;;;15.13;13.63;;;;;;;;;;10401729;28;20765;-75
2022/08/18 18:03:30;;;;;;;16.37;14.67;;;;;;;;;;10398827;28;20224;-74
2022/08/18 18:09:09;;;;;;;16.93;15.17;;;;;;;;;;10397172;28;20220;-74
2022/08/18 18:14:27;;;;;;;16.00;14.53;;;;;;;;;;10299756;28;20751;-74
2022/08/18 18:19:32;;;;;;;16.00;14.40;;;;;;;;;;10388280;28;20588;-73
2022/08/18 18:24:35;;;;;;;17.20;15.53;;;;;;;;;;10404316;28;20235;-73
2022/08/18 18:29:42;;;;;;;17.07;15.37;;;;;;;;;;10398426;28;20248;-74
2022/08/18 18:34:44;;;;;;;16.63;15.13;;;;;;;;;;10395850;28;20662;-74
2022/08/18 18:39:53;;;;;;;20.60;15.33;;;;;;;;;;10396606;28;20224;-73
2022/08/18 18:44:57;;;;;;;16.60;14.97;;;;;;;;;;10398634;28;20221;-73
2022/08/18 18:50:08;;;;;;;16.77;15.23;;;;;;;;;;10387474;28;20315;-75
2022/08/18 18:55:17;;;;;;;16.07;14.63;;;;;;;;;;10399811;28;20227;-73
2022/08/18 19:00:44;;;;;;;14.70;13.30;;;;;;;;;;10386579;28;20196;-73
2022/08/18 19:06:04;;;;;;;13.90;12.50;;;;;;;;;;10372184;28;20212;-73
2022/08/18 19:11:24;;;;;;;14.53;13.13;;;;;;;;;;10395682;28;20228;-73
2022/08/18 19:16:31;;;;;;;13.83;12.53;;;;;;;;;;10395966;28;20232;-74
2022/08/18 19:21:33;;;;;;;14.50;12.53;;;;;;;;;;10400290;28;20316;-74
2022/08/18 19:26:38;;;;;;;13.33;12.03;;;;;;;;;;10406505;28;20787;-74
2022/08/18 19:31:44;;;;;;;13.47;12.10;;;;;;;;;;10389566;28;20243;-74
2022/08/18 19:36:51;;;;;;;13.37;12.13;;;;;;;;;;10408237;28;20224;-73
2022/08/18 19:41:56;;;;;;;13.57;12.23;;;;;;;;;;10386083;28;20217;-74
2022/08/18 19:47:04;;;;;;;13.20;11.47;;;;;;;;;;10389242;28;20213;-69
2022/08/18 19:52:14;;;;;;;12.17;11.00;;;;;;;;;;10402299;28;20762;-70
2022/08/18 19:57:22;;;;;;;13.87;12.47;;;;;;;;;;10390396;28;20719;-68
2022/08/18 20:02:24;;;;;;;14.00;12.70;;;;;;;;;;10396720;28;20237;-68
2022/08/18 20:07:27;;;;;;;13.43;12.03;;;;;;;;;;10392076;28;20564;-73
2022/08/18 20:12:44;;;;;;;14.07;12.67;;;;;;;;;;10405952;28;20290;-73
2022/08/18 20:17:57;;;;;;;14.07;12.77;;;;;;;;;;10410016;28;20228;-73
2022/08/18 20:22:59;;;;;;;14.57;13.13;;;;;;;;;;10404468;28;20220;-72
2022/08/18 20:28:01;;;;;;;13.97;12.77;;;;;;;;;;10410948;28;20216;-72
2022/08/18 20:33:03;;;;;;;14.13;12.83;;;;;;;;;;10406259;28;20725;-72
2022/08/18 20:38:40;;;;;;;14.40;13.10;;;;;;;;;;10396645;28;20219;-74
2022/08/18 20:43:41;;;;;;;14.50;13.00;;;;;;;;;;10329087;28;20240;-74
2022/08/18 20:48:42;;;;;;;15.50;13.93;;;;;;;;;;10385900;28;20217;-73
2022/08/18 20:53:54;;;;;;;16.07;14.57;;;;;;;;;;10397429;28;20228;-73
2022/08/18 20:59:05;;;;;;;15.53;14.13;;;;;;;;;;10401514;28;20212;-73
2022/08/18 21:04:06;;;;;;;15.33;13.83;;;;;;;;;;10390685;28;20272;-72
2022/08/18 21:09:09;;;;;;;15.67;14.27;;;;;;;;;;10382430;28;20783;-73
2022/08/18 21:14:11;;;;;;;15.83;14.43;;;;;;;;;;10390341;28;20784;-72
2022/08/18 21:19:27;;;;;;;15.43;13.93;;;;;;;;;;10388489;28;20228;-73
2022/08/18 21:24:28;;;;;;;15.50;13.97;;;;;;;;;;10401764;28;20227;-73
2022/08/18 21:29:30;;;;;;;15.17;13.87;;;;;;;;;;10394076;28;20271;-74
2022/08/18 21:34:34;;;;;;;15.33;13.83;;;;;;;;;;10413296;28;20221;-75
2022/08/18 21:39:45;;;;;;;17.80;16.20;;;;;;;;;;10396124;28;20205;-72
2022/08/18 21:44:47;;;;;;;17.47;15.87;;;;;;;;;;10395491;28;20277;-72
2022/08/18 21:49:57;;;;;;;17.47;15.93;;;;;;;;;;10411471;28;20741;-72
2022/08/18 21:55:01;;;;;;;17.10;15.60;;;;;;;;;;10397136;28;20232;-71
2022/08/18 22:00:22;;;;;;;17.80;16.17;;;;;;;;;;10387213;28;20619;-72
2022/08/18 22:05:33;;;;;;;17.40;15.60;;;;;;;;;;10405069;28;20314;-71
2022/08/18 22:15:53;;;;;;;16.93;15.33;;;;;;;;;;10405045;28;20227;-72
2022/08/18 22:20:56;;;;;;;18.73;17.03;;;;;;;;;;10392343;28;20314;-72
2022/08/18 22:26:06;;;;;;;17.90;16.30;;;;;;;;;;10412852;28;20226;-71
2022/08/18 22:31:07;;;;;;;20.10;18.20;;;;;;;;;;10397157;28;20223;-72
2022/08/18 22:36:09;;;;;;;19.53;17.73;;;;;;;;;;10408276;28;20239;-73
2022/08/18 22:41:10;;;;;;;18.83;17.07;;;;;;;;;;10406572;28;20227;-73
2022/08/18 22:46:11;;;;;;;17.67;16.10;;;;;;;;;;10392882;28;20224;-73
2022/08/18 22:51:12;;;;;;;17.93;16.13;;;;;;;;;;10406886;28;20237;-72
2022/08/18 22:56:17;;;;;;;17.97;16.37;;;;;;;;;;10409159;28;20220;-73
2022/08/18 23:01:19;;;;;;;21.53;19.53;;;;;;;;;;10411905;28;20231;-73
2022/08/18 23:06:20;;;;;;;20.60;18.70;;;;;;;;;;10411193;28;20270;-72
2022/08/18 23:11:21;;;;;;;21.27;19.37;;;;;;;;;;10399939;28;20240;-71
2022/08/18 23:16:24;;;;;;;18.30;16.67;;;;;;;;;;10385175;28;20231;-70
2022/08/18 23:21:25;;;;;;;19.07;17.47;;;;;;;;;;10393909;28;20235;-73
2022/08/18 23:26:26;;;;;;;19.50;17.70;;;;;;;;;;10394103;28;20220;-72
2022/08/18 23:31:29;;;;;;;17.90;16.30;;;;;;;;;;10407654;28;20233;-72
2022/08/18 23:36:31;;;;;;;17.73;16.13;;;;;;;;;;10404795;28;20241;-72
2022/08/18 23:41:34;;;;;;;17.60;15.90;;;;;;;;;;10403920;28;20244;-71
2022/08/18 23:46:36;;;;;;;16.97;15.37;;;;;;;;;;10408171;28;20217;-73
2022/08/18 23:51:40;;;;;;;18.17;16.47;;;;;;;;;;10401646;28;20299;-72
2022/08/18 23:56:41;;;;;;;19.37;17.37;;;;;;;;;;10410535;28;20768;-72
